Time;durP1;ratioP1;P1;durP2;ratioP2;P2;SDS_P1;SDS_P2;PMS_P1;PMS_P2;Temp;Humidity;BMP_temperature;BMP_pressure;BME280_temperature;BME280_humidity;BME280_pressure;Samples;Min_cycle;Max_cycle;Signal;HPM_P1;HPM_P2
2023/11/29 00:00:41;;;;;;;0.20;0.10;;;;;;;1.49;85.10;99507.69;5032393;28;20483;-54
2023/11/29 00:03:08;;;;;;;0.20;0.10;;;;;;;1.62;86.18;99508.50;5043766;28;20443;-55
2023/11/29 00:05:36;;;;;;;0.20;0.10;;;;;;;1.70;85.03;99506.72;5051838;28;20828;-54
2023/11/29 00:08:11;;;;;;;0.20;0.10;;;;;;;1.69;84.66;99507.59;5039419;28;20872;-56
2023/11/29 00:10:37;;;;;;;0.20;0.10;;;;;;;1.55;84.91;99505.94;5051343;28;20478;-57
2023/11/29 00:13:04;;;;;;;0.20;0.10;;;;;;;1.45;85.00;99505.09;5039471;28;20459;-60
2023/11/29 00:15:31;;;;;;;0.20;0.10;;;;;;;1.39;85.83;99500.78;5051309;28;20545;-53
2023/11/29 00:17:57;;;;;;;0.20;0.10;;;;;;;1.35;85.91;99501.63;5051859;28;20480;-53
2023/11/29 00:20:24;;;;;;;0.20;0.10;;;;;;;1.38;85.53;99493.81;5047691;28;20565;-53
2023/11/29 00:22:50;;;;;;;0.20;0.10;;;;;;;1.26;85.25;99496.47;5052103;28;20454;-52
2023/11/29 00:25:17;;;;;;;0.20;0.10;;;;;;;1.04;87.51;99490.44;5051910;28;20442;-52
2023/11/29 00:27:43;;;;;;;0.20;0.10;;;;;;;1.03;86.82;99486.06;5051747;28;20557;-52
2023/11/29 00:30:10;;;;;;;0.20;0.10;;;;;;;0.98;86.85;99484.34;5051643;28;20460;-52
2023/11/29 00:32:37;;;;;;;0.20;0.10;;;;;;;0.94;87.43;99477.38;5038935;28;20452;-53
2023/11/29 00:35:03;;;;;;;3.03;2.83;;;;;;;0.80;87.31;99480.03;5051003;28;20559;-52
2023/11/29 00:37:30;;;;;;;0.20;0.20;;;;;;;0.72;87.90;99474.84;5051640;28;20521;-54
2023/11/29 00:39:56;;;;;;;0.20;0.10;;;;;;;0.74;88.22;99470.47;5051649;28;20455;-52
2023/11/29 00:42:23;;;;;;;0.20;0.10;;;;;;;0.66;87.57;99468.72;5051663;28;20534;-53
2023/11/29 00:44:52;;;;;;;0.20;0.10;;;;;;;0.51;88.33;99473.09;5044786;28;20456;-52
2023/11/29 00:47:19;;;;;;;0.20;0.10;;;;;;;0.47;87.79;99460.94;5044835;28;20466;-53
2023/11/29 00:49:46;;;;;;;0.20;0.20;;;;;;;0.53;88.11;99460.03;5038431;28;20514;-52
2023/11/29 00:52:12;;;;;;;0.20;0.10;;;;;;;0.44;88.63;99455.72;5038180;28;20448;-52
2023/11/29 00:54:38;;;;;;;0.20;0.10;;;;;;;0.58;87.64;99447.84;5051379;28;20858;-52
2023/11/29 00:57:05;;;;;;;0.20;0.10;;;;;;;0.51;87.74;99456.56;5051416;28;20514;-54
2023/11/29 00:59:32;;;;;;;0.20;0.10;;;;;;;0.33;88.46;99446.13;5051007;28;20971;-51
2023/11/29 01:01:58;;;;;;;0.20;0.10;;;;;;;0.45;87.78;99451.34;5050886;28;20523;-52
2023/11/29 01:04:25;;;;;;;0.20;0.10;;;;;;;0.27;87.45;99444.38;5051127;28;20960;-52
2023/11/29 01:06:52;;;;;;;0.20;0.10;;;;;;;-0.03;88.27;99447.88;5049584;28;20505;-53
2023/11/29 01:09:19;;;;;;;0.20;0.10;;;;;;;0.15;88.31;99453.13;5039866;28;21003;-52
2023/11/29 01:11:46;;;;;;;0.20;0.10;;;;;;;0.12;89.69;99452.22;5049020;28;20467;-52
2023/11/29 01:14:12;;;;;;;0.20;0.10;;;;;;;0.09;87.75;99444.41;5046120;28;20486;-52
2023/11/29 01:16:39;;;;;;;0.20;0.10;;;;;;;-0.01;87.66;99447.00;5050932;28;20983;-52
2023/11/29 01:19:06;;;;;;;0.20;0.10;;;;;;;-0.16;88.71;99439.16;5042353;28;20535;-53
2023/11/29 01:21:38;;;;;;;0.20;0.10;;;;;;;-0.12;89.25;99437.44;5047216;28;20450;-52
2023/11/29 01:24:05;;;;;;;0.20;0.10;;;;;;;-0.14;89.71;99441.78;5051228;28;20474;-52
2023/11/29 01:26:33;;;;;;;0.20;0.10;;;;;;;-0.16;89.43;99446.13;5050972;28;20481;-52
2023/11/29 01:29:00;;;;;;;0.20;0.10;;;;;;;-0.30;89.99;99453.94;5040324;28;20460;-53
2023/11/29 01:31:26;;;;;;;0.20;0.10;;;;;;;-0.31;88.86;99440.03;5049788;28;20892;-52
2023/11/29 01:33:54;;;;;;;0.20;0.10;;;;;;;-0.28;89.98;99440.91;5051392;28;20486;-52
2023/11/29 01:36:21;;;;;;;0.20;0.10;;;;;;;-0.39;89.12;99431.34;5051035;28;20471;-52
2023/11/29 01:38:47;;;;;;;0.20;0.20;;;;;;;-0.24;89.06;99440.06;5050976;28;20505;-52
2023/11/29 01:41:14;;;;;;;0.20;0.10;;;;;;;-0.44;88.77;99438.25;5050940;28;20955;-52
2023/11/29 01:43:40;;;;;;;0.20;0.10;;;;;;;-0.51;89.56;99433.91;5050770;28;20451;-53
2023/11/29 01:46:07;;;;;;;0.20;0.10;;;;;;;-0.49;90.01;99432.19;5035305;28;20940;-53
2023/11/29 01:48:33;;;;;;;2.30;2.20;;;;;;;-0.41;89.40;99433.06;5051262;28;20454;-52
2023/11/29 01:51:00;;;;;;;0.20;0.10;;;;;;;-0.56;89.32;99435.63;5041116;28;20451;-54
2023/11/29 01:53:29;;;;;;;0.20;0.10;;;;;;;-0.46;89.82;99428.69;5054496;28;20830;-52
2023/11/29 01:55:57;;;;;;;0.20;0.10;;;;;;;-0.47;89.61;99425.22;5054296;28;20997;-52
2023/11/29 01:58:26;;;;;;;0.20;0.10;;;;;;;-0.49;89.76;99410.44;5054385;28;20453;-52
2023/11/29 02:00:54;;;;;;;0.20;0.10;;;;;;;-0.39;89.52;99401.75;5054390;28;20446;-52
2023/11/29 02:03:21;;;;;;;0.20;0.10;;;;;;;-0.76;90.10;99401.69;5051493;28;20494;-52
2023/11/29 02:05:48;;;;;;;0.20;0.10;;;;;;;-0.59;90.98;99404.31;5048573;28;20895;-52
2023/11/29 02:08:14;;;;;;;0.20;0.10;;;;;;;-0.51;89.57;99400.00;5041157;28;20510;-52
2023/11/29 02:10:41;;;;;;;0.20;0.10;;;;;;;-0.40;89.89;99398.28;5053883;28;20541;-52
2023/11/29 02:13:07;;;;;;;0.20;0.10;;;;;;;-0.44;89.19;99396.50;5041344;28;20509;-53
2023/11/29 02:15:34;;;;;;;0.20;0.10;;;;;;;-0.50;89.54;99387.81;5053949;28;20518;-52
2023/11/29 02:18:00;;;;;;;0.20;0.10;;;;;;;-0.80;89.89;99389.50;5053670;28;20565;-53
2023/11/29 02:20:27;;;;;;;0.20;0.10;;;;;;;-0.46;90.65;99385.19;5040529;28;20450;-52
2023/11/29 02:22:59;;;;;;;0.20;0.10;;;;;;;-0.23;89.52;99385.22;5054134;28;20513;-52
2023/11/29 02:25:26;;;;;;;0.20;0.20;;;;;;;-0.41;90.02;99377.34;5053895;28;20873;-52
2023/11/29 02:27:52;;;;;;;0.20;0.10;;;;;;;-0.35;90.25;99378.25;5054408;28;20557;-56
2023/11/29 02:30:19;;;;;;;0.20;0.10;;;;;;;-0.39;90.49;99368.69;5054041;28;20451;-56
2023/11/29 02:32:45;;;;;;;0.20;0.10;;;;;;;-0.28;89.99;99365.19;5053718;28;20459;-56
2023/11/29 02:35:12;;;;;;;0.20;0.10;;;;;;;-0.35;89.36;99373.03;5053377;28;20967;-56
2023/11/29 02:37:38;;;;;;;0.20;0.10;;;;;;;-0.24;90.23;99365.19;5053521;28;20477;-58
2023/11/29 02:40:06;;;;;;;0.20;0.10;;;;;;;-0.27;90.12;99361.69;5054298;28;20454;-55
2023/11/29 02:42:32;;;;;;;0.20;0.10;;;;;;;-0.33;89.71;99353.00;5053643;28;20457;-56
2023/11/29 02:44:59;;;;;;;0.20;0.10;;;;;;;-0.22;88.90;99345.19;5053582;28;20447;-56
2023/11/29 02:47:25;;;;;;;0.20;0.10;;;;;;;-0.18;90.09;99346.91;5038362;28;20467;-54
2023/11/29 02:49:52;;;;;;;0.20;0.10;;;;;;;-0.19;90.71;99339.06;5050484;28;20461;-55
2023/11/29 02:52:18;;;;;;;0.20;0.10;;;;;;;-0.16;90.44;99342.53;5039448;28;20487;-56
2023/11/29 02:54:45;;;;;;;0.20;0.10;;;;;;;0.02;90.31;99349.50;5053110;28;20490;-56
2023/11/29 02:57:11;;;;;;;0.20;0.10;;;;;;;0.09;90.32;99342.53;5053342;28;20555;-56
2023/11/29 02:59:38;;;;;;;0.20;0.10;;;;;;;0.09;90.36;99335.56;5068180;28;20533;-56
2023/11/29 03:02:04;;;;;;;0.20;0.10;;;;;;;0.08;91.52;99336.44;5052456;28;20530;-56
2023/11/29 03:04:30;;;;;;;0.20;0.10;;;;;;;0.23;90.83;99328.56;5048389;28;20443;-55
2023/11/29 03:06:57;;;;;;;0.20;0.10;;;;;;;0.05;90.25;99320.78;5050683;28;20542;-55
2023/11/29 03:09:23;;;;;;;0.20;0.10;;;;;;;0.06;91.70;99325.13;5042333;28;20451;-55
2023/11/29 03:11:50;;;;;;;0.20;0.10;;;;;;;0.14;90.67;99317.28;5050647;28;20465;-56
2023/11/29 03:14:16;;;;;;;0.20;0.10;;;;;;;0.10;90.01;99303.31;5041106;28;21062;-56
2023/11/29 03:16:43;;;;;;;0.20;0.10;;;;;;;0.05;90.17;99315.53;5052792;28;20474;-56
2023/11/29 03:19:09;;;;;;;0.20;0.10;;;;;;;-0.06;90.29;99307.72;5043622;28;20454;-57
2023/11/29 03:21:35;;;;;;;0.20;0.10;;;;;;;-0.02;90.77;99301.63;5048775;28;20474;-56
2023/11/29 03:24:02;;;;;;;0.20;0.10;;;;;;;-0.14;89.95;99300.75;5053172;28;20439;-57
2023/11/29 03:26:28;;;;;;;0.20;0.10;;;;;;;-0.31;91.21;99296.44;5052712;28;20522;-57
2023/11/29 03:28:55;;;;;;;0.20;0.10;;;;;;;-0.34;90.90;99299.06;5043252;28;20456;-57
2023/11/29 03:31:21;;;;;;;0.20;0.10;;;;;;;-0.26;90.83;99286.00;5047742;28;20462;-57
2023/11/29 03:33:48;;;;;;;0.20;0.10;;;;;;;-0.20;90.12;99285.13;5052702;28;20486;-57
2023/11/29 03:36:14;;;;;;;0.20;0.10;;;;;;;-0.49;90.25;99286.03;5043008;28;20884;-57
2023/11/29 03:38:41;;;;;;;0.20;0.10;;;;;;;-0.50;90.13;99286.91;5041659;28;20820;-57
2023/11/29 03:41:08;;;;;;;0.20;0.10;;;;;;;-0.50;90.16;99288.63;5049319;28;20482;-56
2023/11/29 03:43:34;;;;;;;0.20;0.10;;;;;;;-0.55;90.73;99283.41;5042161;28;20456;-57
2023/11/29 03:46:00;;;;;;;0.20;0.10;;;;;;;-0.64;90.53;99280.81;5049394;28;20454;-57
2023/11/29 03:48:27;;;;;;;0.20;0.10;;;;;;;-0.56;91.83;99268.63;5042327;28;20448;-57
2023/11/29 03:50:54;;;;;;;0.20;0.13;;;;;;;-0.60;91.59;99272.09;5048931;28;20482;-56
2023/11/29 03:53:20;;;;;;;0.20;0.10;;;;;;;-0.56;90.70;99268.63;5052284;28;20580;-57
2023/11/29 03:55:47;;;;;;;0.20;0.10;;;;;;;-0.60;91.41;99265.16;5048517;28;20488;-57
2023/11/29 03:58:13;;;;;;;0.20;0.10;;;;;;;-0.58;91.52;99265.13;5042560;28;20467;-57
2023/11/29 04:00:40;;;;;;;0.20;0.10;;;;;;;-0.49;91.75;99261.66;5052201;28;20446;-57
2023/11/29 04:03:06;;;;;;;0.20;0.10;;;;;;;-0.47;91.72;99272.97;5052442;28;20462;-57
2023/11/29 04:05:33;;;;;;;0.20;0.10;;;;;;;-0.44;90.93;99258.16;5051629;28;20943;-57
2023/11/29 04:07:59;;;;;;;0.20;0.10;;;;;;;-0.41;92.01;99257.28;5051864;28;20558;-56
2023/11/29 04:10:26;;;;;;;0.20;0.10;;;;;;;-0.33;91.57;99255.56;5051963;28;20454;-57
2023/11/29 04:12:52;;;;;;;0.20;0.10;;;;;;;-0.26;92.49;99245.97;5043064;28;20550;-57
2023/11/29 04:15:19;;;;;;;0.20;0.10;;;;;;;-0.28;92.14;99245.09;5038537;28;20490;-57
2023/11/29 04:17:45;;;;;;;0.20;0.10;;;;;;;-0.28;92.02;99242.47;5067015;28;20466;-57
2023/11/29 04:20:12;;;;;;;0.20;0.10;;;;;;;-0.24;92.64;99239.88;5038453;28;20484;-56
2023/11/29 04:22:38;;;;;;;0.20;0.10;;;;;;;-0.20;92.21;99240.72;5051896;28;20811;-57
2023/11/29 04:25:06;;;;;;;0.20;0.10;;;;;;;-0.08;92.54;99230.25;5051795;28;20447;-56
2023/11/29 04:27:33;;;;;;;0.20;0.10;;;;;;;-0.13;92.40;99232.03;5051651;28;20506;-57
2023/11/29 04:29:59;;;;;;;0.20;0.10;;;;;;;-0.05;93.77;99232.84;5051541;28;21319;-56
2023/11/29 04:32:26;;;;;;;0.20;0.10;;;;;;;0.12;93.25;99231.03;5051521;28;20458;-57
2023/11/29 04:34:52;;;;;;;0.20;0.10;;;;;;;0.22;93.17;99232.75;5038490;28;20491;-56
2023/11/29 04:37:18;;;;;;;0.20;0.10;;;;;;;0.15;92.88;99233.66;5051627;28;20851;-57
2023/11/29 04:39:45;;;;;;;0.20;0.10;;;;;;;0.16;93.45;99227.56;5051275;28;20555;-56
2023/11/29 04:42:11;;;;;;;0.93;0.93;;;;;;;0.31;93.29;99228.38;5039326;28;20448;-57
2023/11/29 04:44:38;;;;;;;0.20;0.10;;;;;;;0.40;92.69;99223.94;5050512;28;20442;-57
2023/11/29 04:47:04;;;;;;;0.20;0.10;;;;;;;0.35;93.64;99224.84;5051312;28;20536;-56
2023/11/29 04:49:31;;;;;;;0.20;0.10;;;;;;;0.43;93.55;99216.13;5038164;28;20478;-56
2023/11/29 04:51:57;;;;;;;0.20;0.10;;;;;;;0.46;92.81;99205.63;5051561;28;20972;-56
2023/11/29 04:54:24;;;;;;;0.20;0.10;;;;;;;0.56;92.24;99209.06;5051277;28;20562;-56
2023/11/29 04:56:51;;;;;;;0.20;0.10;;;;;;;0.52;92.77;99208.19;5038792;28;20555;-56
2023/11/29 04:59:18;;;;;;;0.20;0.10;;;;;;;0.57;93.31;99205.59;5050847;28;20454;-56
2023/11/29 05:01:45;;;;;;;0.20;0.10;;;;;;;0.57;93.41;99198.59;5051325;28;20451;-56
2023/11/29 05:04:11;;;;;;;0.20;0.10;;;;;;;0.45;93.70;99196.06;5051066;28;20943;-57
2023/11/29 05:06:38;;;;;;;0.20;0.10;;;;;;;0.55;94.33;99202.97;5051129;28;20475;-57
2023/11/29 05:09:06;;;;;;;0.20;0.10;;;;;;;0.77;94.15;99213.28;5037929;28;20822;-57
2023/11/29 05:11:32;;;;;;;0.20;0.10;;;;;;;0.96;93.89;99209.69;5050814;28;20459;-56
2023/11/29 05:13:59;;;;;;;0.20;0.20;;;;;;;0.75;93.80;99201.97;5038515;28;20451;-57
2023/11/29 05:16:25;;;;;;;0.20;0.10;;;;;;;0.73;92.71;99209.84;5051049;28;20497;-56
2023/11/29 05:18:52;;;;;;;0.20;0.10;;;;;;;0.59;92.90;99206.44;5044683;28;20448;-56
2023/11/29 05:21:18;;;;;;;0.20;0.10;;;;;;;0.68;93.55;99200.25;5034150;28;20466;-56
2023/11/29 05:23:45;;;;;;;0.20;0.10;;;;;;;0.74;93.36;99201.09;5052324;28;20996;-56
2023/11/29 05:26:12;;;;;;;0.20;0.10;;;;;;;0.51;94.00;99189.91;5054820;28;20556;-56
2023/11/29 05:28:38;;;;;;;0.20;0.10;;;;;;;0.47;93.47;99194.31;5055070;28;20446;-56
2023/11/29 05:31:05;;;;;;;0.27;0.13;;;;;;;0.17;95.44;99184.03;5054153;28;20541;-56
2023/11/29 05:33:31;;;;;;;0.20;0.10;;;;;;;0.12;94.54;99184.03;5042723;28;20455;-56
2023/11/29 05:35:58;;;;;;;0.20;0.10;;;;;;;0.18;95.07;99180.53;5054845;28;20497;-56
2023/11/29 05:38:25;;;;;;;0.20;0.10;;;;;;;-0.20;95.93;99191.13;5055045;28;21020;-56
2023/11/29 05:40:52;;;;;;;0.20;0.10;;;;;;;-0.26;97.14;99197.25;5054850;28;20451;-56
2023/11/29 05:43:18;;;;;;;0.20;0.10;;;;;;;0.04;98.11;99198.00;5054677;28;20453;-57
2023/11/29 05:45:44;;;;;;;0.20;0.10;;;;;;;0.36;96.50;99183.03;5054787;28;20547;-57
2023/11/29 05:48:11;;;;;;;0.20;0.10;;;;;;;0.42;95.73;99182.16;5054758;28;20470;-56
2023/11/29 05:50:39;;;;;;;0.20;0.10;;;;;;;0.46;95.06;99181.25;5040977;28;20867;-57
2023/11/29 05:53:06;;;;;;;0.20;0.10;;;;;;;0.41;95.15;99169.94;5054667;28;20482;-57
2023/11/29 05:55:34;;;;;;;0.20;0.10;;;;;;;0.55;94.86;99174.22;5052109;28;20908;-57
2023/11/29 05:58:01;;;;;;;0.20;0.10;;;;;;;0.75;95.23;99163.63;5043070;28;20485;-56
2023/11/29 06:00:27;;;;;;;0.20;0.10;;;;;;;0.99;95.42;99167.78;5054470;28;20546;-56
2023/11/29 06:02:58;;;;;;;3.50;2.23;;;;;;;1.10;96.47;99162.47;5054457;28;20943;-56
2023/11/29 06:05:27;;;;;;;0.60;0.40;;;;;;;1.16;96.28;99158.03;5054141;28;20821;-57
2023/11/29 06:07:54;;;;;;;0.20;0.10;;;;;;;1.34;96.10;99151.75;5044274;28;20478;-56
2023/11/29 06:10:21;;;;;;;0.20;0.10;;;;;;;1.42;96.20;99149.06;5050586;28;20463;-56
2023/11/29 06:12:47;;;;;;;0.20;0.10;;;;;;;1.43;95.83;99142.94;5044148;28;20482;-56
2023/11/29 06:15:14;;;;;;;0.20;0.10;;;;;;;1.44;96.68;99144.69;5051136;28;20497;-56
2023/11/29 06:17:40;;;;;;;0.20;0.10;;;;;;;1.54;96.62;99130.63;5048101;28;20471;-56
2023/11/29 06:20:11;;;;;;;0.20;0.10;;;;;;;1.71;96.31;99135.66;5053982;28;20970;-56
2023/11/29 06:22:38;;;;;;;0.20;0.10;;;;;;;1.78;95.80;99126.81;5054055;28;20932;-56
2023/11/29 06:25:07;;;;;;;0.20;0.10;;;;;;;1.62;95.79;99120.91;5053896;28;20848;-56
2023/11/29 06:27:34;;;;;;;0.20;0.10;;;;;;;1.73;96.54;99121.66;5053797;28;21005;-56
2023/11/29 06:30:03;;;;;;;0.20;0.10;;;;;;;1.87;96.23;99131.97;5053828;28;20555;-56
2023/11/29 06:32:31;;;;;;;0.20;0.10;;;;;;;1.87;95.71;99126.72;5041573;28;20514;-56
2023/11/29 06:34:57;;;;;;;0.20;0.10;;;;;;;1.99;95.68;99123.09;5053055;28;20592;-56
2023/11/29 06:37:24;;;;;;;0.20;0.10;;;;;;;1.90;95.96;99125.81;5053415;28;20508;-56
2023/11/29 06:39:50;;;;;;;0.20;0.10;;;;;;;1.84;96.85;99141.63;5054041;28;20532;-56
2023/11/29 06:42:17;;;;;;;0.20;0.10;;;;;;;1.99;97.35;99129.19;5053654;28;20509;-55
2023/11/29 06:44:43;;;;;;;0.20;0.10;;;;;;;2.00;96.64;99137.91;5053408;28;20620;-57
2023/11/29 06:47:10;;;;;;;0.20;0.10;;;;;;;1.97;97.19;99130.97;5053466;28;20474;-56
2023/11/29 06:49:37;;;;;;;1.17;1.13;;;;;;;2.04;96.47;99126.50;5053780;28;20450;-57
2023/11/29 06:52:05;;;;;;;0.20;0.10;;;;;;;2.07;97.15;99129.97;5053312;28;20512;-56
2023/11/29 06:54:31;;;;;;;0.20;0.10;;;;;;;2.07;97.23;99132.59;5052825;28;20817;-57
2023/11/29 06:56:58;;;;;;;0.20;0.10;;;;;;;2.11;97.22;99127.31;5052663;28;20494;-56
2023/11/29 06:59:24;;;;;;;0.20;0.10;;;;;;;2.18;97.09;99127.19;5046294;28;20534;-56
2023/11/29 07:01:51;;;;;;;0.20;0.10;;;;;;;2.23;96.87;99127.13;5046929;28;20455;-57
2023/11/29 07:04:18;;;;;;;0.20;0.10;;;;;;;2.44;96.88;99134.69;5043005;28;20443;-56
2023/11/29 07:06:44;;;;;;;0.20;0.10;;;;;;;2.32;97.29;99142.72;5052750;28;20467;-56
2023/11/29 07:09:13;;;;;;;0.20;0.10;;;;;;;2.41;98.07;99142.59;5053595;28;20465;-57
2023/11/29 07:11:40;;;;;;;0.20;0.10;;;;;;;2.58;97.67;99131.84;5050568;28;20494;-56
2023/11/29 07:14:07;;;;;;;0.20;0.10;;;;;;;2.55;97.59;99135.41;5040858;28;20467;-57
2023/11/29 07:16:33;;;;;;;0.20;0.10;;;;;;;2.66;96.98;99136.09;5049329;28;20565;-56
2023/11/29 07:19:00;;;;;;;0.20;0.10;;;;;;;2.63;97.08;99146.66;5039810;28;20509;-54
2023/11/29 07:21:27;;;;;;;0.20;0.10;;;;;;;2.69;97.82;99148.31;5048349;28;20887;-56
2023/11/29 07:23:53;;;;;;;0.20;0.10;;;;;;;2.81;96.65;99153.38;5052394;28;20447;-57
2023/11/29 07:26:19;;;;;;;0.20;0.10;;;;;;;2.86;97.57;99161.16;5049758;28;20471;-58
2023/11/29 07:28:47;;;;;;;0.20;0.10;;;;;;;2.88;96.72;99162.03;5043583;28;20463;-58
2023/11/29 07:31:14;;;;;;;0.20;0.10;;;;;;;3.00;96.32;99163.56;5047830;28;20493;-58
2023/11/29 07:33:40;;;;;;;0.20;0.10;;;;;;;3.05;96.09;99167.84;5067944;28;20458;-57
2023/11/29 07:36:14;;;;;;;0.20;0.10;;;;;;;3.21;95.36;99158.81;5052833;28;20482;-57
2023/11/29 07:38:40;;;;;;;0.20;0.20;;;;;;;3.16;95.24;99158.06;5045018;28;20461;-58
2023/11/29 07:41:09;;;;;;;0.20;0.10;;;;;;;3.35;95.05;99165.59;5040808;28;20454;-57
2023/11/29 07:43:35;;;;;;;0.20;0.10;;;;;;;3.17;96.06;99165.03;5054431;28;20538;-58
2023/11/29 07:46:03;;;;;;;0.20;0.20;;;;;;;3.16;95.48;99163.31;5053718;28;20538;-57
2023/11/29 07:48:30;;;;;;;0.20;0.20;;;;;;;3.20;95.56;99166.72;5054652;28;20454;-57
2023/11/29 07:50:58;;;;;;;0.20;0.10;;;;;;;3.34;94.78;99169.97;5042602;28;20497;-58
2023/11/29 07:53:25;;;;;;;0.20;0.10;;;;;;;3.26;95.65;99156.09;5055083;28;20461;-57
2023/11/29 07:55:51;;;;;;;0.20;0.10;;;;;;;3.48;94.76;99157.47;5052481;28;20494;-58
2023/11/29 07:58:18;;;;;;;0.20;0.10;;;;;;;3.51;94.56;99156.53;5053327;28;20986;-58
2023/11/29 08:00:56;;;;;;;0.20;0.10;;;;;;;3.61;94.26;99146.75;5053304;28;20446;-57
2023/11/29 08:03:23;;;;;;;0.20;0.10;;;;;;;3.51;94.68;99152.16;5052398;28;20446;-57
2023/11/29 08:05:49;;;;;;;0.20;0.10;;;;;;;3.41;94.95;99134.81;5053049;28;21019;-58
2023/11/29 08:08:16;;;;;;;0.20;0.10;;;;;;;3.57;95.01;99140.69;5040454;28;20506;-58
2023/11/29 08:10:42;;;;;;;0.30;0.30;;;;;;;3.48;95.08;99144.34;5033897;28;20451;-58
2023/11/29 08:13:09;;;;;;;0.20;0.10;;;;;;;3.65;94.55;99141.38;5038746;28;20542;-57
2023/11/29 08:15:37;;;;;;;0.20;0.10;;;;;;;3.89;94.86;99134.78;5053646;28;20579;-57
2023/11/29 08:18:03;;;;;;;0.20;0.10;;;;;;;3.73;94.21;99146.50;5053044;28;20525;-58
2023/11/29 08:20:31;;;;;;;0.20;0.10;;;;;;;3.86;93.72;99148.00;5040825;28;20447;-58
2023/11/29 08:22:57;;;;;;;0.20;0.10;;;;;;;3.78;93.97;99145.50;5053177;28;20451;-58
2023/11/29 08:25:25;;;;;;;0.20;0.10;;;;;;;3.83;94.05;99134.88;5052560;28;20443;-58
2023/11/29 08:27:53;;;;;;;0.20;0.20;;;;;;;3.86;94.08;99150.63;5053048;28;20906;-57
2023/11/29 08:30:19;;;;;;;0.20;0.10;;;;;;;3.77;94.37;99137.66;5054101;28;20480;-58
2023/11/29 08:32:46;;;;;;;0.30;0.17;;;;;;;4.05;93.18;99138.81;5053853;28;20545;-58
2023/11/29 08:35:13;;;;;;;0.20;0.10;;;;;;;3.96;93.02;99131.13;5054717;28;20451;-58
2023/11/29 08:37:40;;;;;;;0.20;0.10;;;;;;;3.98;93.05;99139.00;5087034;28;20477;-57
2023/11/29 08:40:07;;;;;;;0.20;0.10;;;;;;;4.21;92.29;99134.09;5053014;28;20542;-57
2023/11/29 08:42:34;;;;;;;0.20;0.20;;;;;;;4.24;92.59;99138.41;5051987;28;20449;-57
2023/11/29 08:45:00;;;;;;;0.20;0.10;;;;;;;3.94;92.47;99134.69;5056067;28;20956;-56
2023/11/29 08:47:27;;;;;;;0.20;0.10;;;;;;;4.14;92.73;99129.88;5053487;28;21067;-57
2023/11/29 08:49:54;;;;;;;0.20;0.17;;;;;;;4.00;93.04;99122.28;5044888;28;20994;-57
2023/11/29 08:52:22;;;;;;;0.20;0.20;;;;;;;3.95;92.71;99121.50;5055441;28;20457;-57
2023/11/29 08:54:53;;;;;;;0.20;0.10;;;;;;;4.04;92.59;99129.22;5055479;28;20451;-57
2023/11/29 08:57:24;;;;;;;0.20;0.10;;;;;;;4.14;92.43;99124.63;5071062;28;21082;-60
2023/11/29 08:59:51;;;;;;;0.30;0.17;;;;;;;4.11;92.34;99127.28;5058944;28;20458;-58
2023/11/29 09:02:20;;;;;;;0.20;0.10;;;;;;;4.20;92.53;99121.84;5058943;28;20452;-59
2023/11/29 09:04:47;;;;;;;0.20;0.10;;;;;;;4.33;91.52;99119.81;5058718;28;20927;-58
2023/11/29 09:07:14;;;;;;;0.30;0.20;;;;;;;4.37;91.88;99111.81;5054668;28;20554;-58
2023/11/29 09:09:44;;;;;;;0.20;0.20;;;;;;;4.41;91.78;99105.59;5050207;28;20544;-58
2023/11/29 09:12:15;;;;;;;0.20;0.10;;;;;;;4.60;92.18;99107.81;5054854;28;20469;-57
2023/11/29 09:14:43;;;;;;;0.20;0.10;;;;;;;4.57;91.11;99110.50;5050400;28;20446;-58
2023/11/29 09:17:10;;;;;;;0.20;0.10;;;;;;;4.70;90.55;99107.56;5059338;28;20551;-58
2023/11/29 09:19:37;;;;;;;0.20;0.20;;;;;;;4.79;90.84;99101.19;5057777;28;20451;-58
2023/11/29 09:22:04;;;;;;;0.30;0.10;;;;;;;4.60;90.88;99103.41;5059085;28;20477;-58
2023/11/29 09:24:30;;;;;;;0.20;0.13;;;;;;;4.80;90.60;99104.69;5058518;28;20446;-58
2023/11/29 09:26:57;;;;;;;0.20;0.20;;;;;;;4.84;90.82;99091.41;5058028;28;20544;-57
2023/11/29 09:29:28;;;;;;;0.20;0.10;;;;;;;4.77;90.54;99100.34;5058250;28;20489;-58
2023/11/29 09:31:55;;;;;;;0.30;0.20;;;;;;;5.03;90.39;99104.97;5058149;28;20561;-58
2023/11/29 09:34:22;;;;;;;0.20;0.20;;;;;;;5.05;90.01;99100.53;5057357;28;20478;-57
2023/11/29 09:36:50;;;;;;;0.30;0.20;;;;;;;5.12;89.47;99098.63;5057028;28;20564;-58
2023/11/29 09:39:17;;;;;;;0.20;0.10;;;;;;;5.30;88.78;99106.03;5056345;28;20529;-54
2023/11/29 09:41:44;;;;;;;0.20;0.10;;;;;;;5.27;89.79;99108.75;5054919;28;20542;-54
2023/11/29 09:44:12;;;;;;;0.20;0.13;;;;;;;4.88;88.95;99103.59;5054786;28;20508;-53
2023/11/29 09:46:39;;;;;;;0.20;0.20;;;;;;;4.75;90.27;99113.56;5054512;28;21045;-53
2023/11/29 09:49:06;;;;;;;0.20;0.10;;;;;;;4.88;89.92;99111.50;5052222;28;20936;-54
2023/11/29 09:51:33;;;;;;;0.20;0.10;;;;;;;4.94;90.23;99106.09;5044018;28;20481;-54
2023/11/29 09:53:59;;;;;;;0.20;0.10;;;;;;;4.94;89.90;99111.38;5054791;28;20541;-55
2023/11/29 09:56:27;;;;;;;1.43;1.43;;;;;;;4.94;90.67;99100.84;5054490;28;20498;-53
2023/11/29 09:58:55;;;;;;;0.23;0.20;;;;;;;5.04;90.51;99101.44;5054582;28;20973;-53
2023/11/29 10:01:22;;;;;;;0.30;0.20;;;;;;;5.13;89.88;99111.75;5070292;28;20465;-53
2023/11/29 10:04:04;;;;;;;0.20;0.10;;;;;;;5.10;89.71;99095.16;5054278;28;20454;-52
2023/11/29 10:06:32;;;;;;;0.20;0.20;;;;;;;5.26;89.69;99092.09;5045914;28;20462;-53
2023/11/29 10:09:06;;;;;;;0.20;0.10;;;;;;;4.98;90.53;99091.94;5040985;28;20637;-54
2023/11/29 10:11:33;;;;;;;0.30;0.20;;;;;;;5.11;91.54;99087.22;5054143;28;20931;-52
2023/11/29 10:14:03;;;;;;;0.20;0.20;;;;;;;5.06;91.46;99100.50;5041353;28;20451;-54
2023/11/29 10:16:31;;;;;;;0.23;0.17;;;;;;;4.84;92.92;99094.06;5054283;28;20521;-54
2023/11/29 10:19:01;;;;;;;0.30;0.20;;;;;;;4.92;92.21;99091.22;5046157;28;20458;-54
2023/11/29 10:21:27;;;;;;;0.20;0.20;;;;;;;5.02;92.72;99090.94;5049259;28;20458;-53
2023/11/29 10:23:54;;;;;;;0.20;0.10;;;;;;;5.05;92.67;99079.47;5053150;28;20447;-57
2023/11/29 10:26:22;;;;;;;0.20;0.10;;;;;;;5.05;93.13;99074.19;5050483;28;20463;-54
2023/11/29 10:28:51;;;;;;;0.20;0.20;;;;;;;5.04;93.49;99073.34;5044760;28;20454;-54
2023/11/29 10:31:17;;;;;;;0.30;0.10;;;;;;;5.05;92.83;99061.91;5050816;28;20451;-53
2023/11/29 10:33:46;;;;;;;0.20;0.10;;;;;;;5.24;93.13;99061.44;5043903;28;20532;-54
2023/11/29 10:36:13;;;;;;;0.30;0.20;;;;;;;5.48;93.08;99057.25;5041255;28;20491;-55
2023/11/29 10:38:44;;;;;;;0.30;0.10;;;;;;;5.40;92.62;99056.59;5043813;28;20542;-57
2023/11/29 10:41:15;;;;;;;0.30;0.20;;;;;;;5.45;92.29;99059.97;5053784;28;20469;-55
2023/11/29 10:43:44;;;;;;;0.20;0.10;;;;;;;5.51;92.06;99062.44;5053855;28;20538;-56
2023/11/29 10:46:23;;;;;;;0.30;0.13;;;;;;;5.42;92.11;99057.41;5048509;28;20963;-55
2023/11/29 10:49:20;;;;;;;0.30;0.20;;;;;;;5.53;92.36;99061.50;5034236;28;20466;-56
2023/11/29 10:51:47;;;;;;;0.30;0.20;;;;;;;5.53;92.05;99055.34;5042462;28;20533;-55
2023/11/29 10:54:17;;;;;;;0.30;0.10;;;;;;;5.75;91.03;99059.09;5054410;28;20501;-58
2023/11/29 10:57:04;;;;;;;0.30;0.20;;;;;;;5.55;91.64;99059.66;5040772;28;20475;-57
2023/11/29 10:59:33;;;;;;;0.27;0.13;;;;;;;5.75;90.19;99063.50;5040260;28;20951;-56
2023/11/29 11:02:00;;;;;;;0.30;0.20;;;;;;;5.60;91.66;99055.13;5053344;28;20550;-57
2023/11/29 11:04:34;;;;;;;0.30;0.20;;;;;;;5.68;90.54;99047.00;5048623;28;20467;-57
2023/11/29 11:07:05;;;;;;;0.30;0.20;;;;;;;5.84;90.04;99063.25;5050411;28;20459;-55
2023/11/29 11:09:37;;;;;;;0.30;0.10;;;;;;;5.62;91.30;99053.34;5046580;28;20450;-55
2023/11/29 11:12:06;;;;;;;0.30;0.10;;;;;;;5.57;90.31;99054.34;5048133;28;20464;-55
2023/11/29 11:14:46;;;;;;;0.30;0.20;;;;;;;5.73;89.89;99060.03;5043919;28;21033;-55
2023/11/29 11:17:18;;;;;;;0.30;0.10;;;;;;;5.78;89.47;99055.53;5053074;28;20505;-55
2023/11/29 11:19:46;;;;;;;0.30;0.10;;;;;;;6.01;89.56;99047.81;5050459;28;20549;-53
2023/11/29 11:22:15;;;;;;;0.30;0.20;;;;;;;5.85;88.65;99044.72;5051570;28;20491;-53
2023/11/29 11:24:57;;;;;;;0.30;0.20;;;;;;;5.92;89.27;99045.47;5052713;28;20454;-54
2023/11/29 11:27:29;;;;;;;0.30;0.20;;;;;;;5.98;87.96;99047.91;5051330;28;20569;-53
2023/11/29 11:29:56;;;;;;;0.30;0.20;;;;;;;5.88;88.68;99041.13;5052671;28;20889;-54
2023/11/29 11:32:41;;;;;;;0.30;0.20;;;;;;;5.99;87.57;99041.72;5052657;28;20490;-54
2023/11/29 11:35:21;;;;;;;0.30;0.17;;;;;;;6.12;87.99;99043.06;5044649;28;20456;-54
2023/11/29 11:37:55;;;;;;;0.30;0.20;;;;;;;5.97;86.96;99030.34;5047547;28;20857;-54
2023/11/29 11:40:29;;;;;;;0.30;0.20;;;;;;;6.01;87.29;99033.75;5051852;28;20990;-55